createdAt,value
2022-08-19T00:02:02.858Z,99489.31
2022-08-19T00:04:35.927Z,99489.00
2022-08-19T00:07:06.483Z,99495.47
2022-08-19T00:09:33.582Z,99509.88
2022-08-19T00:12:01.247Z,99494.38
2022-08-19T00:14:32.890Z,99497.00
2022-08-19T00:17:00.851Z,99506.97
2022-08-19T00:19:28.144Z,99503.38
2022-08-19T00:21:57.233Z,99508.91
2022-08-19T00:24:24.248Z,99508.91
2022-08-19T00:26:51.813Z,99511.69
2022-08-19T00:29:21.024Z,99507.47
2022-08-19T00:31:47.923Z,99511.59
2022-08-19T00:34:17.835Z,99515.41
2022-08-19T00:36:45.154Z,99516.44
2022-08-19T00:39:13.593Z,99511.09
2022-08-19T00:41:41.240Z,99506.91
2022-08-19T00:44:15.094Z,99505.47
2022-08-19T00:46:45.252Z,99503.72
2022-08-19T00:49:29.661Z,99501.78
2022-08-19T00:52:05.665Z,99504.56
2022-08-19T00:54:34.168Z,99502.88
2022-08-19T00:57:03.093Z,99502.38
2022-08-19T00:59:56.349Z,99504.94
2022-08-19T01:02:18.458Z,99500.31
2022-08-19T01:04:45.321Z,99507.50
2022-08-19T01:07:16.677Z,99504.53
2022-08-19T01:09:46.692Z,99507.00
2022-08-19T01:12:13.881Z,99515.31
2022-08-19T01:14:41.713Z,99510.09
2022-08-19T01:17:12.314Z,99514.50
2022-08-19T01:19:43.971Z,99505.88
2022-08-19T01:22:36.061Z,99512.00
2022-08-19T01:25:03.467Z,99504.31
2022-08-19T01:27:46.926Z,99509.66
2022-08-19T01:30:17.627Z,99505.47
2022-08-19T01:32:44.708Z,99514.28
2022-08-19T01:35:12.700Z,99512.09
2022-08-19T01:37:52.986Z,99508.50
2022-08-19T01:40:22.423Z,99511.88
2022-08-19T01:42:51.204Z,99518.56
2022-08-19T01:45:20.194Z,99516.91
2022-08-19T01:47:55.324Z,99523.50
2022-08-19T01:50:30.710Z,99530.69
2022-08-19T01:53:03.668Z,99522.91
2022-08-19T01:55:41.296Z,99533.09
2022-08-19T01:58:13.484Z,99535.84
2022-08-19T02:00:41.158Z,99532.78
2022-08-19T02:03:11.096Z,99540.88
2022-08-19T02:05:38.745Z,99538.31
2022-08-19T02:08:06.050Z,99533.28
2022-08-19T02:10:33.232Z,99537.72
2022-08-19T02:13:00.363Z,99531.34
2022-08-19T02:15:27.171Z,99527.63
2022-08-19T02:17:53.975Z,99528.84
2022-08-19T02:20:20.850Z,99526.38
2022-08-19T02:22:47.652Z,99533.97
2022-08-19T02:25:15.442Z,99530.25
2022-08-19T02:27:43.309Z,99539.81
2022-08-19T02:30:16.782Z,99541.56
2022-08-19T02:32:44.786Z,99542.72
2022-08-19T02:35:13.357Z,99549.50
2022-08-19T02:37:59.895Z,99547.97
2022-08-19T02:40:27.896Z,99545.28
2022-08-19T02:42:54.989Z,99545.81
2022-08-19T02:45:22.101Z,99543.09
2022-08-19T02:47:48.934Z,99546.19
2022-08-19T02:50:15.792Z,99550.44
2022-08-19T02:52:42.673Z,99556.59
2022-08-19T02:55:09.917Z,99546.09
2022-08-19T02:57:36.993Z,99543.94
2022-08-19T03:00:11.516Z,99553.88
2022-08-19T03:02:38.320Z,99552.00
2022-08-19T03:05:07.076Z,99561.19
2022-08-19T03:07:33.897Z,99553.19
2022-08-19T03:10:00.733Z,99563.44
2022-08-19T03:12:27.566Z,99560.69
2022-08-19T03:14:54.414Z,99561.75
2022-08-19T03:17:21.531Z,99559.78
2022-08-19T03:19:48.341Z,99568.16
2022-08-19T03:22:15.207Z,99579.47
2022-08-19T03:24:42.088Z,99575.03
2022-08-19T03:27:08.944Z,99571.22
2022-08-19T03:29:43.210Z,99573.22
2022-08-19T03:32:27.890Z,99572.41
2022-08-19T03:34:58.592Z,99575.31
2022-08-19T03:37:25.421Z,99571.97
2022-08-19T03:39:52.784Z,99593.63
2022-08-19T03:42:31.973Z,99581.78
2022-08-19T03:45:00.205Z,99595.69
2022-08-19T03:47:27.038Z,99598.78
2022-08-19T03:49:53.816Z,99603.25
2022-08-19T03:52:20.589Z,99610.50
2022-08-19T03:54:47.446Z,99605.03
2022-08-19T03:57:14.282Z,99611.13
2022-08-19T03:59:41.208Z,99599.84
2022-08-19T04:02:12.164Z,99604.59
2022-08-19T04:04:40.935Z,99602.44
2022-08-19T04:07:08.097Z,99606.34
2022-08-19T04:09:37.665Z,99606.94
2022-08-19T04:12:06.548Z,99611.97
2022-08-19T04:14:34.823Z,99608.19
2022-08-19T04:17:05.908Z,99608.78
2022-08-19T04:19:34.786Z,99614.41
2022-08-19T04:22:02.139Z,99606.16
2022-08-19T04:24:29.154Z,99616.94
2022-08-19T04:26:55.961Z,99626.09
2022-08-19T04:29:26.358Z,99628.59
2022-08-19T04:31:54.801Z,99625.88
2022-08-19T04:34:24.954Z,99630.31
2022-08-19T04:36:54.471Z,99631.47
2022-08-19T04:39:45.852Z,99635.63
2022-08-19T04:42:31.832Z,99638.97
2022-08-19T04:44:59.723Z,99643.41
2022-08-19T04:47:47.443Z,99632.34
2022-08-19T04:50:14.922Z,99647.28
2022-08-19T04:52:44.888Z,99646.19
2022-08-19T04:55:12.425Z,99650.91
2022-08-19T04:57:41.278Z,99659.69
2022-08-19T05:00:10.085Z,99661.66
2022-08-19T05:02:37.044Z,99663.25
2022-08-19T05:05:04.373Z,99666.00
2022-08-19T05:07:31.901Z,99665.72
2022-08-19T05:09:59.293Z,99669.31
2022-08-19T05:12:29.218Z,99679.81
2022-08-19T05:14:58.025Z,99680.41
2022-08-19T05:17:28.208Z,99686.50
2022-08-19T05:20:15.006Z,99685.94
2022-08-19T05:22:42.720Z,99685.69
2022-08-19T05:25:13.798Z,99685.38
2022-08-19T05:27:42.638Z,99690.63
2022-08-19T05:30:11.944Z,99691.22
2022-08-19T05:32:40.231Z,99695.34
2022-08-19T05:35:08.108Z,99695.91
2022-08-19T05:37:35.329Z,99698.16
2022-08-19T05:40:02.845Z,99708.09
2022-08-19T05:42:29.787Z,99706.19
2022-08-19T05:44:57.714Z,99717.50
2022-08-19T05:47:24.649Z,99714.44
2022-08-19T05:49:52.055Z,99714.19
2022-08-19T05:52:19.430Z,99719.69
2022-08-19T05:54:52.255Z,99723.50
2022-08-19T05:57:20.306Z,99727.63
2022-08-19T05:59:50.937Z,99718.81
2022-08-19T06:02:26.034Z,99727.38
2022-08-19T06:04:53.028Z,99729.31
2022-08-19T06:07:20.595Z,99735.66
2022-08-19T06:09:59.160Z,99738.41
2022-08-19T06:12:36.057Z,99744.19
2022-08-19T06:15:08.188Z,99745.59
2022-08-19T06:17:36.254Z,99737.03
2022-08-19T06:20:09.864Z,99735.06
2022-08-19T06:22:41.589Z,99728.97
2022-08-19T06:25:10.333Z,99734.47
2022-08-19T06:27:41.994Z,99742.72
2022-08-19T06:30:15.980Z,99741.88
2022-08-19T06:32:43.137Z,99749.03
2022-08-19T06:35:10.331Z,99745.94
2022-08-19T06:37:40.834Z,99750.63
2022-08-19T06:40:11.697Z,99747.59
2022-08-19T06:42:54.172Z,99750.91
2022-08-19T06:45:25.059Z,99749.25
2022-08-19T06:47:57.068Z,99763.81
2022-08-19T06:50:25.006Z,99759.91
2022-08-19T06:52:53.103Z,99755.47
2022-08-19T06:55:20.238Z,99766.22
2022-08-19T06:57:47.590Z,99772.34
2022-08-19T07:00:15.147Z,99768.41
2022-08-19T07:02:48.265Z,99766.69
2022-08-19T07:05:23.027Z,99769.47
2022-08-19T07:07:50.950Z,99772.19
2022-08-19T07:10:18.145Z,99769.38
2022-08-19T07:12:45.482Z,99767.41
2022-08-19T07:15:13.062Z,99781.19
2022-08-19T07:17:42.021Z,99773.13
2022-08-19T07:20:10.334Z,99777.50
2022-08-19T07:22:40.368Z,99782.72
2022-08-19T07:25:09.440Z,99798.34
2022-08-19T07:27:36.710Z,99791.78
2022-08-19T07:30:04.186Z,99791.69
2022-08-19T07:32:32.497Z,99798.91
2022-08-19T07:35:01.715Z,99788.41
2022-08-19T07:37:33.040Z,99794.47
2022-08-19T07:40:01.843Z,99790.31
2022-08-19T07:42:30.811Z,99794.09
2022-08-19T07:44:58.884Z,99803.44
2022-08-19T07:47:48.905Z,99805.28
2022-08-19T07:50:12.740Z,99810.19
2022-08-19T07:52:40.669Z,99807.34
2022-08-19T07:55:40.448Z,99806.22
2022-08-19T07:57:58.763Z,99813.47
2022-08-19T08:00:25.816Z,99813.97
2022-08-19T08:02:55.494Z,99805.59
2022-08-19T08:05:44.010Z,99810.06
2022-08-19T08:08:30.592Z,99811.00
2022-08-19T08:10:57.757Z,99806.91
2022-08-19T08:13:28.216Z,99808.31
2022-08-19T08:15:56.649Z,99802.19
2022-08-19T08:18:27.481Z,99801.56
2022-08-19T08:20:56.832Z,99812.00
2022-08-19T08:23:26.794Z,99815.00
2022-08-19T08:25:57.576Z,99823.88
2022-08-19T08:28:25.452Z,99821.59
2022-08-19T08:30:53.507Z,99832.28
2022-08-19T08:33:33.831Z,99823.44
2022-08-19T08:36:08.886Z,99819.63
2022-08-19T08:38:41.248Z,99825.31
2022-08-19T08:41:41.776Z,99824.09
2022-08-19T08:44:17.136Z,99810.06
2022-08-19T08:47:01.941Z,99817.97
2022-08-19T08:49:41.299Z,99811.97
2022-08-19T08:52:39.447Z,99811.97
2022-08-19T08:55:11.877Z,99800.28
2022-08-19T08:57:52.254Z,99823.22
2022-08-19T09:00:24.216Z,99826.22
2022-08-19T09:02:51.656Z,99826.88
2022-08-19T09:05:25.836Z,99822.06
2022-08-19T09:08:13.785Z,99816.34
2022-08-19T09:10:55.188Z,99820.03
2022-08-19T09:13:34.719Z,99827.28
2022-08-19T09:16:21.158Z,99827.06
2022-08-19T09:18:54.642Z,99823.06
2022-08-19T09:21:30.272Z,99823.69
2022-08-19T09:23:58.853Z,99830.94
2022-08-19T09:26:35.222Z,99832.06
2022-08-19T09:29:15.122Z,99835.94
2022-08-19T09:31:42.070Z,99829.59
2022-08-19T09:34:21.423Z,99831.03
2022-08-19T09:36:56.117Z,99832.06
2022-08-19T09:39:23.679Z,99836.25
2022-08-19T09:41:54.059Z,99833.34
2022-08-19T09:44:24.381Z,99840.25
2022-08-19T09:46:53.865Z,99835.38
2022-08-19T09:49:22.829Z,99830.00
2022-08-19T09:51:54.479Z,99832.41
2022-08-19T09:54:23.520Z,99835.38
2022-08-19T09:56:52.357Z,99845.03
2022-08-19T09:59:19.468Z,99846.94
2022-08-19T10:01:46.513Z,99847.28
2022-08-19T10:04:20.155Z,99842.19
2022-08-19T10:06:53.973Z,99843.47
2022-08-19T10:09:33.962Z,99845.72
2022-08-19T10:12:02.992Z,99853.66
2022-08-19T10:14:30.818Z,99841.69
2022-08-19T10:16:59.236Z,99832.88
2022-08-19T10:19:31.156Z,99840.25
2022-08-19T10:22:00.455Z,99842.84
2022-08-19T10:24:29.055Z,99842.84
2022-08-19T10:26:58.736Z,99844.75
2022-08-19T10:29:32.897Z,99841.69
2022-08-19T10:32:05.631Z,99836.25
2022-08-19T10:34:48.171Z,99845.94
2022-08-19T10:37:23.932Z,99838.81
2022-08-19T10:39:56.327Z,99832.00
2022-08-19T10:42:23.316Z,99826.41
2022-08-19T10:44:51.813Z,99831.13
2022-08-19T10:47:24.732Z,99826.28
2022-08-19T10:50:17.088Z,99825.13
2022-08-19T10:52:48.964Z,99825.91
2022-08-19T10:55:40.372Z,99832.53
2022-08-19T10:58:23.169Z,99834.78
2022-08-19T11:00:58.799Z,99834.28
2022-08-19T11:03:29.022Z,99837.78
2022-08-19T11:06:07.145Z,99838.69
2022-08-19T11:08:35.988Z,99836.25
2022-08-19T11:11:04.320Z,99835.41
2022-08-19T11:13:34.572Z,99840.34
2022-08-19T11:16:07.666Z,99840.88
2022-08-19T11:18:39.775Z,99839.72
2022-08-19T11:21:20.530Z,99844.69
2022-08-19T11:23:49.795Z,99841.38
2022-08-19T11:26:18.813Z,99841.91
2022-08-19T11:28:46.192Z,99829.16
2022-08-19T11:31:18.176Z,99829.56
2022-08-19T11:33:48.055Z,99828.16
2022-08-19T11:36:15.414Z,99827.22
2022-08-19T11:38:43.432Z,99820.13
2022-08-19T11:41:10.328Z,99824.47
2022-08-19T11:43:38.029Z,99822.41
2022-08-19T11:46:10.980Z,99819.13
2022-08-19T11:48:38.408Z,99826.25
2022-08-19T11:51:09.808Z,99828.19
2022-08-19T11:53:37.907Z,99830.06
2022-08-19T11:56:06.969Z,99834.78
2022-08-19T11:58:35.528Z,99837.38
2022-08-19T12:01:05.834Z,99831.28
2022-08-19T12:03:32.679Z,99836.84
2022-08-19T12:05:59.587Z,99835.41
2022-08-19T12:08:26.422Z,99829.66
2022-08-19T12:10:53.272Z,99836.13
2022-08-19T12:13:20.134Z,99838.69
2022-08-19T12:15:48.604Z,99851.28
2022-08-19T12:18:15.819Z,99851.38
2022-08-19T12:20:44.792Z,99839.63
2022-08-19T12:23:11.929Z,99845.88
2022-08-19T12:25:51.056Z,99841.72
2022-08-19T12:28:21.161Z,99841.28
2022-08-19T12:30:49.142Z,99849.53
2022-08-19T12:33:16.081Z,99844.13
2022-08-19T12:35:47.542Z,99837.75
2022-08-19T12:38:15.716Z,99840.94
2022-08-19T12:40:42.999Z,99838.97
2022-08-19T12:43:09.849Z,99845.34
2022-08-19T12:45:37.074Z,99831.69
2022-08-19T12:48:34.621Z,99841.06
2022-08-19T12:50:53.778Z,99841.94
2022-08-19T12:53:20.569Z,99842.94
2022-08-19T12:55:47.453Z,99837.09
2022-08-19T12:58:14.339Z,99843.06
2022-08-19T13:00:42.396Z,99843.50
2022-08-19T13:03:10.635Z,99841.28
2022-08-19T13:05:37.631Z,99844.09
2022-08-19T13:08:04.536Z,99844.59
2022-08-19T13:10:38.911Z,99857.03
2022-08-19T13:13:09.703Z,99857.94
2022-08-19T13:15:41.283Z,99848.72
2022-08-19T13:18:11.445Z,99847.25
2022-08-19T13:20:41.675Z,99841.19
2022-08-19T13:23:09.449Z,99846.06
2022-08-19T13:25:37.886Z,99851.94
2022-08-19T13:28:07.536Z,99849.28
2022-08-19T13:30:52.979Z,99843.13
2022-08-19T13:33:19.926Z,99855.00
2022-08-19T13:36:01.449Z,99849.25
2022-08-19T13:38:29.381Z,99846.06
2022-08-19T13:40:56.825Z,99846.31
2022-08-19T13:43:27.157Z,99842.19
2022-08-19T13:45:57.407Z,99856.59
2022-08-19T13:48:27.569Z,99842.19
2022-08-19T13:50:55.241Z,99843.38
2022-08-19T13:53:22.236Z,99842.28
2022-08-19T13:55:49.739Z,99851.66
2022-08-19T13:58:16.561Z,99851.00
2022-08-19T14:00:46.165Z,99842.25
2022-08-19T14:03:14.358Z,99832.44
2022-08-19T14:05:41.462Z,99853.44
2022-08-19T14:08:08.387Z,99847.84
2022-08-19T14:10:35.279Z,99839.88
2022-08-19T14:13:04.351Z,99854.41
2022-08-19T14:15:32.199Z,99846.50
2022-08-19T14:17:59.227Z,99846.25
2022-08-19T14:20:26.567Z,99854.69
2022-08-19T14:22:54.720Z,99843.19
2022-08-19T14:25:28.059Z,99845.16
2022-08-19T14:27:55.773Z,99841.88
2022-08-19T14:30:29.141Z,99838.91
2022-08-19T14:32:57.786Z,99841.69
2022-08-19T14:35:25.401Z,99842.25
2022-08-19T14:37:56.238Z,99839.00
2022-08-19T14:40:28.597Z,99849.44
2022-08-19T14:43:05.274Z,99850.53
2022-08-19T14:45:35.445Z,99843.72
2022-08-19T14:48:04.444Z,99839.16
2022-08-19T14:50:31.655Z,99846.75
2022-08-19T14:53:09.111Z,99838.28
2022-08-19T14:55:42.999Z,99856.88
2022-08-19T14:58:10.052Z,99846.88
2022-08-19T15:00:58.187Z,99853.00
2022-08-19T15:03:25.215Z,99863.16
2022-08-19T15:05:53.201Z,99846.06
2022-08-19T15:08:20.112Z,99839.00
2022-08-19T15:10:48.831Z,99851.13
2022-08-19T15:13:15.823Z,99856.25
2022-08-19T15:15:43.709Z,99854.88
2022-08-19T15:18:12.686Z,99853.34
2022-08-19T15:20:40.112Z,99862.31
2022-08-19T15:23:09.033Z,99861.56
2022-08-19T15:25:35.853Z,99860.16
2022-08-19T15:28:04.983Z,99865.56
2022-08-19T15:30:31.888Z,99857.00
2022-08-19T15:32:59.176Z,99863.47
2022-08-19T15:35:26.983Z,99850.66
2022-08-19T15:37:54.628Z,99863.47
2022-08-19T15:40:24.551Z,99862.22
2022-08-19T15:42:51.588Z,99858.16
2022-08-19T15:45:20.256Z,99863.38
2022-08-19T15:47:47.753Z,99860.06
2022-08-19T15:50:20.017Z,99860.44
2022-08-19T15:52:54.307Z,99867.72
2022-08-19T15:55:33.501Z,99867.84
2022-08-19T15:58:27.849Z,99864.63
2022-08-19T16:01:13.808Z,99867.25
2022-08-19T16:04:00.861Z,99864.88
2022-08-19T16:06:29.593Z,99859.28
2022-08-19T16:09:00.122Z,99862.97
2022-08-19T16:11:30.521Z,99860.88
2022-08-19T16:13:59.004Z,99869.75
2022-08-19T16:16:33.691Z,99876.16
2022-08-19T16:19:03.869Z,99871.41
2022-08-19T16:21:33.450Z,99872.03
2022-08-19T16:24:03.128Z,99875.56
2022-08-19T16:26:31.726Z,99878.34
2022-08-19T16:29:00.084Z,99872.69
2022-08-19T16:31:28.253Z,99876.41
2022-08-19T16:33:55.717Z,99877.72
2022-08-19T16:36:25.936Z,99877.91
2022-08-19T16:38:55.240Z,99873.31
2022-08-19T16:41:22.569Z,99866.03
2022-08-19T16:43:52.620Z,99868.69
2022-08-19T16:46:21.426Z,99875.75
2022-08-19T16:48:50.680Z,99869.81
2022-08-19T16:51:18.356Z,99869.28
2022-08-19T16:53:45.415Z,99875.63
2022-08-19T16:56:12.970Z,99882.19
2022-08-19T16:58:40.607Z,99881.69
2022-08-19T17:01:09.286Z,99883.94
2022-08-19T17:03:37.723Z,99882.97
2022-08-19T17:06:18.365Z,99880.38
2022-08-19T17:08:51.033Z,99879.28
2022-08-19T17:11:19.816Z,99888.13
2022-08-19T17:13:48.321Z,99884.09
2022-08-19T17:16:21.920Z,99886.78
2022-08-19T17:18:52.388Z,99887.72
2022-08-19T17:21:20.746Z,99885.25
2022-08-19T17:23:47.548Z,99883.28
2022-08-19T17:26:18.045Z,99888.84
2022-08-19T17:28:49.797Z,99889.06
2022-08-19T17:31:18.014Z,99889.06
2022-08-19T17:33:48.279Z,99886.19
2022-08-19T17:36:23.459Z,99895.56
2022-08-19T17:38:52.752Z,99893.94
2022-08-19T17:41:19.689Z,99891.03
2022-08-19T17:43:46.576Z,99892.03
2022-08-19T17:46:20.791Z,99887.41
2022-08-19T17:48:52.554Z,99895.97
2022-08-19T17:51:36.030Z,99899.38
2022-08-19T17:54:05.583Z,99890.63
2022-08-19T17:56:32.768Z,99895.56
2022-08-19T17:59:01.532Z,99898.34
2022-08-19T18:01:43.004Z,99896.63
2022-08-19T18:04:18.905Z,99900.09
2022-08-19T18:06:52.718Z,99903.59
2022-08-19T18:09:41.831Z,99900.31
2022-08-19T18:12:14.232Z,99896.97
2022-08-19T18:14:41.730Z,99908.19
2022-08-19T18:17:12.790Z,99902.19
2022-08-19T18:19:43.628Z,99907.75
2022-08-19T18:22:20.774Z,99913.19
2022-08-19T18:24:47.592Z,99916.56
2022-08-19T18:27:14.818Z,99921.69
2022-08-19T18:29:41.848Z,99923.03
2022-08-19T18:32:14.729Z,99926.13
2022-08-19T18:34:43.521Z,99925.50
2022-08-19T18:37:11.196Z,99924.47
2022-08-19T18:39:56.763Z,99926.13
2022-08-19T18:42:42.317Z,99922.16
2022-08-19T18:45:28.295Z,99929.97
2022-08-19T18:48:27.015Z,99928.81
2022-08-19T18:51:01.013Z,99933.00
2022-08-19T18:53:30.487Z,99944.41
2022-08-19T18:55:58.393Z,99944.41
2022-08-19T18:58:32.410Z,99955.66
2022-08-19T19:01:00.310Z,99953.78
2022-08-19T19:03:27.280Z,99958.88
2022-08-19T19:05:54.617Z,99961.81
2022-08-19T19:08:27.477Z,99966.31
2022-08-19T19:10:56.386Z,99973.56
2022-08-19T19:13:23.334Z,99975.25
2022-08-19T19:15:50.175Z,99981.84
2022-08-19T19:18:16.960Z,99974.69
2022-08-19T19:20:43.791Z,99979.97
2022-08-19T19:23:10.713Z,99971.75
2022-08-19T19:25:49.988Z,99980.69
2022-08-19T19:28:17.974Z,99974.34
2022-08-19T19:30:45.131Z,99981.06
2022-08-19T19:33:12.321Z,99976.97
2022-08-19T19:35:41.097Z,99981.97
2022-08-19T19:38:12.621Z,99991.16
2022-08-19T19:40:39.675Z,99994.22
2022-08-19T19:43:06.475Z,99993.22
2022-08-19T19:45:33.644Z,99989.66
2022-08-19T19:48:00.782Z,99996.72
2022-08-19T19:50:31.394Z,99997.88
2022-08-19T19:52:58.607Z,100004.34
2022-08-19T19:55:26.845Z,100010.19
2022-08-19T19:57:54.482Z,100007.16
2022-08-19T20:00:22.177Z,100010.25
2022-08-19T20:02:50.880Z,100014.47
2022-08-19T20:05:20.946Z,100017.28
2022-08-19T20:08:07.023Z,100014.56
2022-08-19T20:10:34.358Z,100017.34
2022-08-19T20:13:02.558Z,100012.97
2022-08-19T20:15:31.504Z,100019.66
2022-08-19T20:18:00.034Z,100008.84
2022-08-19T20:20:27.530Z,100017.16
2022-08-19T20:22:54.762Z,100009.16
2022-08-19T20:25:22.278Z,100011.38
2022-08-19T20:27:49.672Z,100019.69
2022-08-19T20:30:19.712Z,100020.28
2022-08-19T20:32:48.364Z,100025.25
2022-08-19T20:35:18.835Z,100024.16
2022-08-19T20:37:45.684Z,100030.56
2022-08-19T20:40:13.560Z,100023.13
2022-08-19T20:42:42.046Z,100029.75
2022-08-19T20:45:32.510Z,100023.69
2022-08-19T20:47:58.608Z,100021.81
2022-08-19T20:50:26.183Z,100023.75
2022-08-19T20:52:57.271Z,100023.22
2022-08-19T20:55:24.405Z,100021.56
2022-08-19T20:57:51.774Z,100017.41
2022-08-19T21:00:19.324Z,100015.50
2022-08-19T21:02:47.085Z,100015.50
2022-08-19T21:05:13.976Z,100030.44
2022-08-19T21:07:40.831Z,100024.09
2022-08-19T21:10:08.071Z,100030.47
2022-08-19T21:12:35.600Z,100027.72
2022-08-19T21:15:02.550Z,100031.59
2022-08-19T21:17:29.445Z,100024.72
2022-08-19T21:19:56.264Z,100026.34
2022-08-19T21:22:23.113Z,100028.56
2022-08-19T21:24:49.905Z,100028.56
2022-08-19T21:27:16.682Z,100034.13
2022-08-19T21:29:44.665Z,100032.75
2022-08-19T21:32:14.025Z,100037.44
2022-08-19T21:34:44.134Z,100038.56
2022-08-19T21:37:24.810Z,100032.22
2022-08-19T21:39:52.453Z,100025.59
2022-08-19T21:42:19.413Z,100026.13
2022-08-19T21:44:46.249Z,100029.44
2022-08-19T21:47:13.239Z,100034.97
2022-08-19T21:49:40.167Z,100038.56
2022-08-19T21:52:08.351Z,100042.72
2022-08-19T21:54:38.523Z,100047.69
2022-08-19T21:57:10.683Z,100046.59
2022-08-19T21:59:41.287Z,100040.81
2022-08-19T22:02:20.395Z,100052.41
2022-08-19T22:04:51.911Z,100050.47
2022-08-19T22:07:21.396Z,100049.63
2022-08-19T22:09:50.134Z,100055.97
2022-08-19T22:12:28.468Z,100067.31
2022-08-19T22:14:56.748Z,100060.69
2022-08-19T22:17:24.529Z,100057.09
2022-08-19T22:19:52.608Z,100060.94
2022-08-19T22:22:30.792Z,100057.63
2022-08-19T22:25:07.245Z,100051.00
2022-08-19T22:27:34.276Z,100055.38
2022-08-19T22:30:01.303Z,100056.47
2022-08-19T22:32:30.914Z,100063.94
2022-08-19T22:34:59.855Z,100058.13
2022-08-19T22:37:29.673Z,100058.13
2022-08-19T22:39:56.656Z,100052.03
2022-08-19T22:42:29.099Z,100053.66
2022-08-19T22:45:00.215Z,100063.03
2022-08-19T22:47:32.077Z,100060.28
2022-08-19T22:50:01.397Z,100062.22
2022-08-19T22:52:28.319Z,100065.25
2022-08-19T22:55:00.300Z,100063.84
2022-08-19T22:57:28.089Z,100070.75
2022-08-19T22:59:56.092Z,100060.81
2022-08-19T23:02:32.262Z,100071.28
2022-08-19T23:05:02.636Z,100071.00
2022-08-19T23:07:29.705Z,100069.91
2022-08-19T23:09:57.217Z,100077.06
2022-08-19T23:12:32.813Z,100082.31
2022-08-19T23:15:07.578Z,100075.66
2022-08-19T23:17:35.465Z,100077.84
2022-08-19T23:20:04.264Z,100086.63
2022-08-19T23:22:31.216Z,100082.72
2022-08-19T23:25:10.524Z,100081.34
2022-08-19T23:27:56.276Z,100078.78
2022-08-19T23:30:26.143Z,100078.78
2022-08-19T23:33:07.674Z,100079.84
2022-08-19T23:35:38.462Z,100075.13
2022-08-19T23:38:06.942Z,100072.06
2022-08-19T23:40:36.825Z,100077.03
2022-08-19T23:43:07.904Z,100074.81
2022-08-19T23:45:38.434Z,100064.31
2022-08-19T23:48:08.285Z,100067.59
2022-08-19T23:50:36.007Z,100060.16
2022-08-19T23:53:04.530Z,100060.09
2022-08-19T23:55:35.477Z,100062.59
2022-08-19T23:58:03.191Z,100048.81
